Decoded Metar for KDYR (DYERSBURG in TN, USA) (IATA:DYR) | Meteo·Mobile Aviation Weather
aviador You're here:

KDYR Decoded Metar

DYERSBURG in TN, USA
Report Time2019-02-17 16:28:00
UTC Time2019-02-17 16:32:52
Flight Rules ifr IFR
Wind270° at 05 kt
W.Decomp.*RWY 22: 3.1 kt HW 3.9 kt RCW
RWY 34: 1.8 kt HW 4.7 kt LCW
W.Rank270° ranks 26
Current wind is below 270° avg. (6.8)
Visibility9999 m
Phenomena:N/A
Clouds:Overcast 007 Hf
Expected CloudBase > 800 ft AGL from Temp-Dew spread
Ceiling700 ft
Temp06°C (ISA -8)
Dew Point04°C (87% RH)
AAT2.9°C
QNH1010 hPa
Density Alt-453 ft
Elevation338 ft
Report Wrong Elevation
Raw Report
KDYR 171628Z AUTO 27005KT 10SM OVC007 06/04 A2984 RMK AO2 CIG
004V012 PNO $=

Extra information for KDYR:More info

Metar Taf Metar & Taf Last 4 Metars F.Rules Stats Wind Profile Meteogram Temp Stats Airport Information Weather charts Add Link Nearby VenuesMetar ALERT Operation Metar Decoded Social comments

AIRNAV info for KDYR